createdAt,value
2019-02-02T00:02:22.604Z,12.83
2019-02-02T00:04:57.096Z,12.30
2019-02-02T00:07:30.768Z,11.60
2019-02-02T00:10:05.224Z,12.33
2019-02-02T00:12:39.745Z,12.90
2019-02-02T00:15:13.512Z,12.90
2019-02-02T00:17:47.309Z,12.90
2019-02-02T00:20:22.004Z,13.40
2019-02-02T00:22:55.740Z,14.17
2019-02-02T00:25:29.522Z,21.63
2019-02-02T00:28:04.012Z,20.87
2019-02-02T00:30:37.777Z,16.40
2019-02-02T00:33:11.408Z,17.77
2019-02-02T00:35:45.334Z,15.00
2019-02-02T00:38:19.156Z,13.87
2019-02-02T00:40:52.977Z,14.17
2019-02-02T00:43:27.568Z,13.93
2019-02-02T00:46:01.233Z,14.73
2019-02-02T00:48:34.992Z,14.90
2019-02-02T00:51:09.484Z,13.70
2019-02-02T00:53:43.413Z,15.10
2019-02-02T00:56:17.169Z,13.83
2019-02-02T00:58:50.949Z,14.77
2019-02-02T01:01:24.831Z,14.57
2019-02-02T01:03:59.457Z,14.20
2019-02-02T01:06:33.350Z,14.23
2019-02-02T01:09:07.172Z,15.27
2019-02-02T01:11:41.048Z,13.73
2019-02-02T01:14:14.753Z,15.17
2019-02-02T01:16:48.416Z,14.93
2019-02-02T01:19:22.213Z,13.90
2019-02-02T01:21:56.684Z,14.27
2019-02-02T01:24:31.258Z,14.07
2019-02-02T01:27:04.965Z,13.43
2019-02-02T01:29:38.966Z,13.77
2019-02-02T01:32:14.018Z,12.47
2019-02-02T01:34:47.280Z,13.57
2019-02-02T01:37:20.953Z,13.70
2019-02-02T01:39:54.879Z,15.23
2019-02-02T01:42:28.601Z,14.30
2019-02-02T01:45:03.345Z,13.17
2019-02-02T01:47:37.145Z,13.90
2019-02-02T01:50:13.017Z,14.23
2019-02-02T01:52:46.945Z,14.23
2019-02-02T01:55:20.877Z,13.73
2019-02-02T01:57:54.495Z,13.47
2019-02-02T02:00:30.862Z,14.80
2019-02-02T02:03:05.320Z,13.90
2019-02-02T02:05:39.860Z,14.57
2019-02-02T02:08:14.444Z,13.70
2019-02-02T02:10:48.255Z,14.70
2019-02-02T02:13:21.931Z,15.13
2019-02-02T02:15:55.828Z,15.37
2019-02-02T02:18:29.454Z,14.33
2019-02-02T02:21:03.316Z,13.40
2019-02-02T02:23:37.101Z,14.80
2019-02-02T02:26:10.900Z,13.53
2019-02-02T02:28:45.509Z,14.43
2019-02-02T02:31:19.380Z,14.07
2019-02-02T02:33:53.093Z,13.67
2019-02-02T02:36:27.808Z,14.37
2019-02-02T02:39:02.152Z,13.80
2019-02-02T02:41:35.885Z,13.40
2019-02-02T02:44:09.666Z,13.30
2019-02-02T02:49:23.414Z,14.03
2019-02-02T02:51:57.309Z,14.77
2019-02-02T02:54:33.114Z,14.27
2019-02-02T02:57:06.944Z,12.93
2019-02-02T02:59:40.549Z,12.67
2019-02-02T03:02:14.202Z,13.07
2019-02-02T03:04:48.829Z,13.47
2019-02-02T03:07:22.529Z,12.83
2019-02-02T03:09:56.437Z,13.93
2019-02-02T03:12:30.346Z,13.83
2019-02-02T03:15:05.747Z,13.17
2019-02-02T03:17:39.604Z,13.77
2019-02-02T03:20:14.362Z,12.93
2019-02-02T03:22:48.142Z,14.07
2019-02-02T03:25:23.285Z,14.03
2019-02-02T03:27:57.873Z,13.33
2019-02-02T03:30:31.699Z,13.93
2019-02-02T03:33:05.538Z,14.93
2019-02-02T03:35:40.190Z,13.73
2019-02-02T03:38:14.677Z,14.53
2019-02-02T03:40:48.388Z,14.77
2019-02-02T03:43:22.102Z,14.13
2019-02-02T03:45:56.037Z,14.80
2019-02-02T03:48:30.602Z,14.10
2019-02-02T03:51:04.307Z,14.33
2019-02-02T03:53:40.978Z,14.00
2019-02-02T03:56:11.797Z,14.67
2019-02-02T03:58:45.568Z,13.53
2019-02-02T04:01:20.236Z,14.43
2019-02-02T04:03:53.870Z,13.90
2019-02-02T04:06:28.017Z,14.23
2019-02-02T04:09:01.808Z,12.97
2019-02-02T04:11:35.890Z,13.27
2019-02-02T04:14:09.605Z,15.93
2019-02-02T04:16:44.235Z,13.87
2019-02-02T04:19:17.889Z,13.40
2019-02-02T04:21:51.993Z,13.90
2019-02-02T04:24:25.989Z,13.23
2019-02-02T04:26:59.838Z,14.60
2019-02-02T04:29:33.945Z,14.50
2019-02-02T04:32:07.713Z,14.40
2019-02-02T04:34:41.738Z,14.23
2019-02-02T04:37:16.292Z,13.67
2019-02-02T04:39:50.081Z,13.83
2019-02-02T04:42:23.817Z,14.43
2019-02-02T04:44:57.423Z,14.77
2019-02-02T04:47:31.672Z,14.43
2019-02-02T04:50:05.349Z,14.63
2019-02-02T04:52:39.036Z,14.77
2019-02-02T04:55:13.860Z,14.73
2019-02-02T04:57:49.416Z,15.33
2019-02-02T05:00:25.608Z,15.13
2019-02-02T05:02:59.362Z,14.60
2019-02-02T05:05:33.100Z,14.33
2019-02-02T05:08:06.840Z,15.20
2019-02-02T05:10:40.769Z,15.00
2019-02-02T05:13:15.225Z,15.93
2019-02-02T05:15:49.301Z,15.37
2019-02-02T05:18:22.912Z,14.43
2019-02-02T05:20:56.576Z,15.23
2019-02-02T05:23:31.377Z,14.43
2019-02-02T05:26:04.988Z,14.37
2019-02-02T05:28:39.601Z,14.77
2019-02-02T05:31:14.146Z,15.77
2019-02-02T05:33:47.929Z,15.63
2019-02-02T05:36:22.666Z,14.10
2019-02-02T05:38:56.472Z,15.27
2019-02-02T05:41:30.128Z,13.67
2019-02-02T05:44:04.250Z,14.07
2019-02-02T05:46:37.901Z,15.37
2019-02-02T05:49:11.651Z,14.67
2019-02-02T05:51:46.107Z,14.40
2019-02-02T05:54:19.860Z,16.23
2019-02-02T05:56:53.624Z,15.07
2019-02-02T05:59:28.137Z,16.50
2019-02-02T06:02:01.901Z,16.53
2019-02-02T06:04:35.605Z,17.07
2019-02-02T06:07:09.393Z,16.47
2019-02-02T06:09:43.106Z,16.43
2019-02-02T06:12:17.125Z,18.27
2019-02-02T06:14:50.867Z,15.67
2019-02-02T06:17:24.744Z,17.20
2019-02-02T06:19:58.508Z,15.33
2019-02-02T06:22:32.303Z,15.67
2019-02-02T06:25:06.486Z,15.20
2019-02-02T06:27:40.208Z,15.13
2019-02-02T06:30:19.780Z,14.37
2019-02-02T06:32:53.760Z,15.47
2019-02-02T06:35:28.145Z,15.20
2019-02-02T06:38:01.855Z,15.73
2019-02-02T06:40:35.576Z,16.10
2019-02-02T06:43:09.348Z,14.83
2019-02-02T06:45:43.930Z,15.53
2019-02-02T06:48:18.469Z,15.87
2019-02-02T06:50:52.328Z,15.73
2019-02-02T06:53:26.076Z,14.83
2019-02-02T06:56:00.615Z,16.67
2019-02-02T06:58:34.317Z,15.20
2019-02-02T07:01:08.475Z,16.27
2019-02-02T07:03:42.217Z,15.67
2019-02-02T07:06:16.245Z,15.73
2019-02-02T07:08:51.045Z,15.43
2019-02-02T07:11:24.761Z,15.40
2019-02-02T07:13:59.349Z,16.60
2019-02-02T07:16:33.361Z,15.63
2019-02-02T07:19:07.094Z,14.67
2019-02-02T07:21:40.993Z,13.50
2019-02-02T07:24:15.617Z,15.20
2019-02-02T07:26:49.654Z,14.90
2019-02-02T07:29:23.284Z,14.63
2019-02-02T07:31:57.201Z,13.80
2019-02-02T07:34:30.988Z,12.97
2019-02-02T07:37:04.749Z,14.10
2019-02-02T07:39:38.482Z,14.80
2019-02-02T07:42:12.204Z,14.50
2019-02-02T07:44:46.803Z,15.00
2019-02-02T07:47:20.981Z,14.30
2019-02-02T07:49:54.613Z,13.93
2019-02-02T07:52:28.337Z,13.80
2019-02-02T07:55:02.143Z,14.43
2019-02-02T07:57:36.256Z,13.60
2019-02-02T08:00:21.181Z,14.00
2019-02-02T08:02:54.950Z,14.40
2019-02-02T08:05:29.551Z,15.63
2019-02-02T08:08:03.376Z,14.57
2019-02-02T08:10:37.080Z,13.87
2019-02-02T08:13:10.932Z,14.70
2019-02-02T08:15:44.684Z,14.17
2019-02-02T08:18:18.515Z,14.93
2019-02-02T08:20:52.289Z,15.07
2019-02-02T08:23:26.813Z,15.73
2019-02-02T08:26:01.356Z,14.70
2019-02-02T08:28:35.121Z,14.37
2019-02-02T08:31:09.772Z,14.43
2019-02-02T08:33:45.338Z,14.63
2019-02-02T08:36:17.144Z,14.83
2019-02-02T08:38:51.000Z,14.47
2019-02-02T08:41:24.979Z,13.77
2019-02-02T08:43:58.740Z,14.87
2019-02-02T08:46:32.600Z,14.77
2019-02-02T08:49:06.415Z,14.57
2019-02-02T08:51:40.080Z,15.57
2019-02-02T08:54:13.991Z,15.27
2019-02-02T08:56:47.794Z,16.07
2019-02-02T08:59:23.192Z,16.07
2019-02-02T09:01:56.877Z,15.10
2019-02-02T09:04:30.496Z,15.13
2019-02-02T09:07:04.252Z,14.70
2019-02-02T09:09:39.400Z,15.23
2019-02-02T09:12:13.821Z,16.00
2019-02-02T09:14:47.528Z,14.77
2019-02-02T09:17:21.370Z,14.97
2019-02-02T09:19:55.149Z,15.60
2019-02-02T09:22:28.938Z,15.53
2019-02-02T09:25:02.863Z,16.10
2019-02-02T09:27:36.595Z,15.87
2019-02-02T09:30:15.456Z,16.07
2019-02-02T09:32:47.506Z,15.97
2019-02-02T09:35:22.079Z,15.97
2019-02-02T09:37:55.894Z,15.40
2019-02-02T09:40:29.515Z,15.10
2019-02-02T09:43:03.459Z,16.03
2019-02-02T09:45:37.273Z,16.20
2019-02-02T09:48:11.125Z,16.33
2019-02-02T09:50:44.740Z,15.60
2019-02-02T09:53:18.536Z,16.73
2019-02-02T09:55:52.142Z,17.93
2019-02-02T09:58:25.801Z,17.30
2019-02-02T10:00:59.682Z,17.73
2019-02-02T10:03:33.245Z,17.30
2019-02-02T10:06:07.105Z,17.73
2019-02-02T10:08:40.936Z,16.90
2019-02-02T10:11:14.688Z,17.87
2019-02-02T10:13:48.598Z,18.00
2019-02-02T10:16:22.466Z,17.53
2019-02-02T10:18:56.296Z,17.90
2019-02-02T10:21:30.692Z,19.30
2019-02-02T10:24:04.358Z,18.37
2019-02-02T10:26:38.024Z,17.33
2019-02-02T10:29:12.605Z,18.37
2019-02-02T10:31:46.308Z,19.37
2019-02-02T10:34:20.881Z,18.73
2019-02-02T10:36:55.400Z,18.70
2019-02-02T10:39:29.101Z,18.10
2019-02-02T10:42:02.813Z,19.33
2019-02-02T10:44:38.520Z,18.77
2019-02-02T10:47:12.340Z,18.33
2019-02-02T10:49:46.163Z,19.73
2019-02-02T10:52:22.487Z,17.50
2019-02-02T10:55:00.140Z,18.20
2019-02-02T10:57:38.291Z,17.23
2019-02-02T11:00:36.671Z,17.07
2019-02-02T11:03:15.591Z,16.93
2019-02-02T11:05:49.380Z,17.10
2019-02-02T11:08:23.120Z,15.93
2019-02-02T11:10:56.916Z,15.70
2019-02-02T11:13:31.401Z,17.07
2019-02-02T11:16:08.469Z,16.07
2019-02-02T11:18:39.830Z,17.37
2019-02-02T11:21:13.527Z,16.90
2019-02-02T11:23:47.100Z,15.77
2019-02-02T11:26:21.608Z,15.53
2019-02-02T11:28:55.254Z,14.77
2019-02-02T11:31:28.796Z,14.53
2019-02-02T11:34:02.473Z,13.30
2019-02-02T11:36:37.003Z,14.43
2019-02-02T11:39:10.789Z,13.63
2019-02-02T11:41:44.563Z,13.13
2019-02-02T11:44:20.082Z,13.93
2019-02-02T11:46:52.888Z,13.60
2019-02-02T11:49:26.656Z,14.30
2019-02-02T11:52:00.356Z,14.20
2019-02-02T11:54:34.119Z,14.67
2019-02-02T11:57:07.788Z,14.37
2019-02-02T11:59:42.345Z,15.37
2019-02-02T12:02:16.945Z,13.93
2019-02-02T12:04:50.660Z,13.67
2019-02-02T12:07:24.447Z,14.63
2019-02-02T12:09:58.257Z,13.57
2019-02-02T12:12:31.912Z,14.70
2019-02-02T12:15:07.204Z,14.93
2019-02-02T12:17:40.816Z,15.00
2019-02-02T12:20:17.030Z,14.97
2019-02-02T12:22:50.785Z,13.60
2019-02-02T12:25:24.395Z,15.57
2019-02-02T12:27:57.996Z,15.53
2019-02-02T12:30:31.899Z,15.33
2019-02-02T12:33:06.408Z,16.27
2019-02-02T12:35:40.105Z,15.40
2019-02-02T12:38:14.532Z,15.37
2019-02-02T12:40:49.065Z,17.17
2019-02-02T12:43:22.844Z,15.57
2019-02-02T12:45:56.776Z,15.33
2019-02-02T12:48:32.379Z,16.63
2019-02-02T12:51:05.956Z,16.07
2019-02-02T12:53:39.688Z,17.80
2019-02-02T12:56:13.355Z,17.10
2019-02-02T12:58:49.963Z,15.97
2019-02-02T13:01:20.841Z,16.97
2019-02-02T13:04:01.750Z,16.97
2019-02-02T13:06:30.118Z,16.83
2019-02-02T13:09:03.900Z,16.93
2019-02-02T13:11:37.465Z,18.70
2019-02-02T13:14:11.226Z,17.93
2019-02-02T13:16:44.800Z,17.27
2019-02-02T13:19:18.597Z,17.67
2019-02-02T13:21:52.312Z,17.37
2019-02-02T13:24:26.154Z,17.67
2019-02-02T13:26:59.849Z,17.07
2019-02-02T13:29:33.614Z,16.67
2019-02-02T13:32:07.620Z,17.23
2019-02-02T13:34:43.758Z,18.17
2019-02-02T13:37:17.690Z,17.00
2019-02-02T13:39:51.481Z,15.77
2019-02-02T13:42:26.197Z,18.47
2019-02-02T13:45:00.682Z,17.00
2019-02-02T13:47:35.294Z,17.80
2019-02-02T13:50:10.800Z,15.47
2019-02-02T13:52:44.554Z,16.30
2019-02-02T13:55:20.813Z,17.07
2019-02-02T13:57:54.711Z,16.43
2019-02-02T14:00:28.548Z,16.67
2019-02-02T14:03:03.709Z,16.80
2019-02-02T14:05:36.096Z,17.00
2019-02-02T14:08:09.885Z,15.97
2019-02-02T14:10:44.377Z,17.13
2019-02-02T14:13:18.095Z,16.00
2019-02-02T14:15:52.007Z,16.93
2019-02-02T14:18:26.502Z,16.77
2019-02-02T14:21:00.266Z,16.30
2019-02-02T14:23:34.648Z,16.10
2019-02-02T14:26:09.235Z,15.83
2019-02-02T14:28:42.875Z,17.07
2019-02-02T14:31:17.297Z,16.77
2019-02-02T14:33:51.005Z,17.17
2019-02-02T14:36:24.713Z,17.40
2019-02-02T14:38:58.452Z,15.93
2019-02-02T14:41:32.178Z,16.23
2019-02-02T14:44:05.914Z,16.90
2019-02-02T14:46:40.681Z,16.33
2019-02-02T14:49:14.486Z,16.87
2019-02-02T14:51:48.303Z,16.73
2019-02-02T14:54:21.964Z,17.17
2019-02-02T14:56:56.677Z,17.40
2019-02-02T14:59:30.443Z,17.83
2019-02-02T15:02:04.181Z,16.87
2019-02-02T15:04:37.940Z,17.57
2019-02-02T15:07:11.584Z,17.17
2019-02-02T15:09:46.266Z,17.67
2019-02-02T15:12:20.750Z,16.90
2019-02-02T15:14:54.529Z,18.73
2019-02-02T15:17:28.376Z,18.43
2019-02-02T15:20:02.233Z,18.10
2019-02-02T15:22:36.884Z,18.90
2019-02-02T15:25:10.780Z,17.77
2019-02-02T15:27:45.314Z,17.97
2019-02-02T15:30:28.681Z,19.07
2019-02-02T15:33:02.275Z,19.13
2019-02-02T15:35:36.139Z,19.07
2019-02-02T15:38:09.990Z,17.57
2019-02-02T15:40:43.709Z,17.87
2019-02-02T15:43:17.396Z,18.13
2019-02-02T15:45:51.116Z,18.30
2019-02-02T15:48:25.037Z,19.30
2019-02-02T15:50:58.829Z,18.87
2019-02-02T15:53:32.437Z,18.70
2019-02-02T15:56:06.221Z,19.57
2019-02-02T15:58:40.044Z,19.97
2019-02-02T16:01:14.522Z,18.73
2019-02-02T16:03:58.576Z,18.63
2019-02-02T16:06:32.248Z,19.50
2019-02-02T16:09:05.987Z,21.10
2019-02-02T16:11:39.645Z,18.60
2019-02-02T16:14:13.512Z,18.20
2019-02-02T16:16:48.026Z,17.77
2019-02-02T16:19:22.605Z,19.10
2019-02-02T16:21:56.217Z,17.70
2019-02-02T16:24:29.977Z,18.90
2019-02-02T16:27:03.609Z,19.23
2019-02-02T16:29:38.036Z,18.80
2019-02-02T16:32:11.773Z,18.63
2019-02-02T16:34:45.458Z,19.13
2019-02-02T16:37:19.143Z,18.47
2019-02-02T16:39:52.783Z,19.80
2019-02-02T16:42:26.428Z,17.77
2019-02-02T16:44:59.977Z,17.73
2019-02-02T16:47:33.650Z,17.33
2019-02-02T16:50:08.221Z,18.00
2019-02-02T16:52:41.772Z,19.53
2019-02-02T16:55:15.520Z,22.00
2019-02-02T16:57:50.040Z,36.87
2019-02-02T17:00:25.325Z,35.00
2019-02-02T17:02:59.185Z,27.57
2019-02-02T17:05:33.014Z,25.27
2019-02-02T17:08:06.853Z,20.87
2019-02-02T17:10:40.614Z,22.23
2019-02-02T17:13:15.259Z,19.93
2019-02-02T17:15:48.958Z,18.70
2019-02-02T17:18:22.868Z,19.03
2019-02-02T17:20:56.832Z,18.47
2019-02-02T17:23:30.512Z,19.93
2019-02-02T17:26:04.196Z,19.40
2019-02-02T17:28:37.857Z,20.07
2019-02-02T17:31:11.695Z,19.00
2019-02-02T17:33:45.277Z,18.57
2019-02-02T17:36:19.782Z,18.03
2019-02-02T17:38:53.432Z,16.97
2019-02-02T17:41:27.082Z,16.57
2019-02-02T17:44:00.793Z,17.80
2019-02-02T17:46:34.417Z,17.67
2019-02-02T17:49:08.104Z,15.50
2019-02-02T17:51:41.926Z,17.27
2019-02-02T17:54:15.608Z,16.27
2019-02-02T17:56:50.104Z,16.73
2019-02-02T17:59:24.059Z,16.60
2019-02-02T18:01:57.479Z,16.40
2019-02-02T18:04:39.177Z,15.67
2019-02-02T18:07:04.800Z,16.40
2019-02-02T18:09:38.391Z,15.53
2019-02-02T18:12:12.041Z,16.57
2019-02-02T18:14:45.727Z,15.83
2019-02-02T18:17:19.361Z,15.30
2019-02-02T18:19:53.056Z,15.83
2019-02-02T18:22:27.448Z,14.93
2019-02-02T18:25:01.130Z,16.63
2019-02-02T18:27:35.488Z,15.30
2019-02-02T18:30:27.485Z,16.33
2019-02-02T18:33:01.286Z,15.23
2019-02-02T18:35:35.835Z,14.90
2019-02-02T18:38:09.560Z,16.30
2019-02-02T18:40:43.244Z,15.87
2019-02-02T18:43:16.994Z,16.50
2019-02-02T18:45:50.667Z,15.77
2019-02-02T18:48:24.276Z,15.80
2019-02-02T18:50:57.880Z,14.67
2019-02-02T18:53:31.485Z,14.57
2019-02-02T18:56:05.076Z,14.40
2019-02-02T18:58:38.792Z,15.20
2019-02-02T19:01:12.397Z,14.93
2019-02-02T19:03:45.957Z,14.33
2019-02-02T19:06:19.724Z,15.47
2019-02-02T19:08:53.523Z,14.70
2019-02-02T19:11:27.976Z,15.90
2019-02-02T19:14:01.704Z,16.20
2019-02-02T19:16:35.321Z,15.70
2019-02-02T19:19:09.720Z,17.10
2019-02-02T19:21:44.250Z,16.70
2019-02-02T19:24:18.005Z,16.73
2019-02-02T19:26:52.320Z,16.80
2019-02-02T19:29:26.178Z,16.40
2019-02-02T19:32:00.064Z,17.03
2019-02-02T19:34:33.834Z,16.90
2019-02-02T19:37:07.529Z,16.47
2019-02-02T19:39:41.353Z,16.67
2019-02-02T19:42:15.744Z,16.57
2019-02-02T19:44:49.400Z,18.13
2019-02-02T19:47:23.000Z,19.00
2019-02-02T19:49:56.764Z,18.63
2019-02-02T19:52:30.491Z,18.13
2019-02-02T19:55:14.373Z,17.53
2019-02-02T19:57:38.572Z,16.57
2019-02-02T20:00:13.696Z,19.30
2019-02-02T20:02:47.475Z,18.50
2019-02-02T20:05:28.610Z,17.33
2019-02-02T20:07:54.653Z,17.53
2019-02-02T20:10:28.352Z,18.70
2019-02-02T20:13:02.062Z,17.63
2019-02-02T20:15:35.749Z,16.30
2019-02-02T20:18:10.674Z,18.30
2019-02-02T20:20:43.144Z,19.47
2019-02-02T20:23:16.725Z,19.23
2019-02-02T20:25:50.557Z,19.47
2019-02-02T20:28:24.348Z,17.97
2019-02-02T20:30:58.069Z,20.00
2019-02-02T20:33:31.732Z,20.63
2019-02-02T20:36:05.452Z,17.60
2019-02-02T20:38:40.181Z,18.70
2019-02-02T20:41:13.684Z,17.23
2019-02-02T20:43:47.424Z,19.67
2019-02-02T20:46:20.991Z,16.57
2019-02-02T20:48:54.608Z,18.27
2019-02-02T20:51:28.208Z,17.27
2019-02-02T20:54:01.892Z,16.03
2019-02-02T20:56:35.602Z,16.23
2019-02-02T20:59:09.333Z,14.70
2019-02-02T21:01:43.163Z,15.90
2019-02-02T21:04:16.832Z,15.27
2019-02-02T21:06:50.585Z,14.53
2019-02-02T21:09:24.337Z,15.33
2019-02-02T21:11:58.640Z,15.07
2019-02-02T21:14:32.301Z,16.07
2019-02-02T21:17:05.985Z,14.83
2019-02-02T21:19:39.820Z,15.23
2019-02-02T21:22:13.561Z,14.87
2019-02-02T21:24:47.260Z,14.47
2019-02-02T21:27:21.079Z,14.37
2019-02-02T21:29:54.392Z,14.20
2019-02-02T21:32:28.088Z,15.23
2019-02-02T21:35:01.798Z,14.37
2019-02-02T21:37:35.539Z,15.00
2019-02-02T21:40:11.344Z,12.80
2019-02-02T21:42:45.028Z,13.80
2019-02-02T21:45:18.744Z,14.00
2019-02-02T21:47:52.384Z,14.70
2019-02-02T21:50:26.037Z,13.83
2019-02-02T21:52:59.649Z,14.27
2019-02-02T21:55:33.285Z,12.83
2019-02-02T21:58:07.771Z,13.53
2019-02-02T22:00:41.497Z,13.60
2019-02-02T22:03:15.153Z,14.53
2019-02-02T22:05:48.800Z,11.37
2019-02-02T22:08:22.596Z,13.00
2019-02-02T22:10:57.212Z,13.37
2019-02-02T22:13:30.980Z,13.60
2019-02-02T22:16:05.609Z,13.33
2019-02-02T22:18:39.284Z,13.33
2019-02-02T22:21:13.071Z,12.93
2019-02-02T22:23:47.482Z,13.10
2019-02-02T22:26:21.213Z,13.43
2019-02-02T22:28:57.712Z,12.90
2019-02-02T22:31:32.574Z,12.00
2019-02-02T22:34:06.329Z,12.93
2019-02-02T22:36:39.960Z,12.97
2019-02-02T22:39:13.601Z,12.10
2019-02-02T22:41:47.292Z,13.83
2019-02-02T22:44:20.920Z,13.50
2019-02-02T22:46:54.732Z,12.73
2019-02-02T22:49:29.121Z,14.40
2019-02-02T22:52:03.665Z,14.07
2019-02-02T22:54:37.482Z,14.27
2019-02-02T22:57:11.823Z,14.10
2019-02-02T22:59:47.775Z,12.63
2019-02-02T23:02:19.264Z,12.90
2019-02-02T23:04:52.899Z,12.60
2019-02-02T23:07:30.150Z,13.03
2019-02-02T23:13:21.576Z,21.40
2019-02-02T23:16:06.067Z,15.40
2019-02-02T23:18:40.233Z,13.40
2019-02-02T23:21:14.646Z,12.83
2019-02-02T23:23:49.249Z,13.00
2019-02-02T23:26:23.019Z,13.00
2019-02-02T23:28:56.805Z,12.00
2019-02-02T23:31:30.673Z,11.23
2019-02-02T23:34:04.451Z,11.23
2019-02-02T23:36:38.208Z,11.87
2019-02-02T23:39:12.928Z,12.33
2019-02-02T23:41:46.616Z,12.23
2019-02-02T23:44:20.432Z,10.70
2019-02-02T23:46:54.293Z,10.07
2019-02-02T23:49:28.051Z,11.03
2019-02-02T23:52:01.904Z,10.60
2019-02-02T23:54:35.640Z,10.87
2019-02-02T23:57:09.342Z,10.37
2019-02-02T23:59:43.148Z,11.47
